sensor_id;sensor_type;location;lat;lon;timestamp;P1;durP1;ratioP1;P2;durP2;ratioP2
48861;SDS011;34681;49.188;-0.374;2022-10-24T00:01:22;9.13;;;3.50;;
48861;SDS011;34681;49.188;-0.374;2022-10-24T00:03:48;13.33;;;3.70;;
48861;SDS011;34681;49.188;-0.374;2022-10-24T00:06:15;9.43;;;3.33;;
48861;SDS011;34681;49.188;-0.374;2022-10-24T00:08:41;9.53;;;3.13;;
48861;SDS011;34681;49.188;-0.374;2022-10-24T00:11:10;4.97;;;2.40;;
48861;SDS011;34681;49.188;-0.374;2022-10-24T00:13:38;7.03;;;2.43;;
48861;SDS011;34681;49.188;-0.374;2022-10-24T00:16:04;8.40;;;2.97;;
48861;SDS011;34681;49.188;-0.374;2022-10-24T00:18:30;8.33;;;2.63;;
48861;SDS011;34681;49.188;-0.374;2022-10-24T00:20:55;6.33;;;3.27;;
48861;SDS011;34681;49.188;-0.374;2022-10-24T00:23:21;7.03;;;2.80;;
48861;SDS011;34681;49.188;-0.374;2022-10-24T00:25:46;10.40;;;3.20;;
48861;SDS011;34681;49.188;-0.374;2022-10-24T00:28:12;9.30;;;2.30;;
48861;SDS011;34681;49.188;-0.374;2022-10-24T00:30:37;9.70;;;3.33;;
48861;SDS011;34681;49.188;-0.374;2022-10-24T00:33:02;10.40;;;2.50;;
48861;SDS011;34681;49.188;-0.374;2022-10-24T00:35:28;10.63;;;2.80;;
48861;SDS011;34681;49.188;-0.374;2022-10-24T00:37:54;8.93;;;3.20;;
48861;SDS011;34681;49.188;-0.374;2022-10-24T00:40:20;9.10;;;2.90;;
48861;SDS011;34681;49.188;-0.374;2022-10-24T00:42:46;7.73;;;2.73;;
48861;SDS011;34681;49.188;-0.374;2022-10-24T00:48:04;5.63;;;2.23;;
48861;SDS011;34681;49.188;-0.374;2022-10-24T00:50:36;6.87;;;1.50;;
48861;SDS011;34681;49.188;-0.374;2022-10-24T00:53:02;2.20;;;1.60;;
48861;SDS011;34681;49.188;-0.374;2022-10-24T00:55:27;4.53;;;2.10;;
48861;SDS011;34681;49.188;-0.374;2022-10-24T00:57:53;4.10;;;1.40;;
48861;SDS011;34681;49.188;-0.374;2022-10-24T01:00:27;5.93;;;1.50;;
48861;SDS011;34681;49.188;-0.374;2022-10-24T01:02:55;3.60;;;1.70;;
48861;SDS011;34681;49.188;-0.374;2022-10-24T01:05:21;3.80;;;1.60;;
48861;SDS011;34681;49.188;-0.374;2022-10-24T01:26:33;1.60;;;1.30;;
48861;SDS011;34681;49.188;-0.374;2022-10-24T01:29:18;4.50;;;1.47;;
48861;SDS011;34681;49.188;-0.374;2022-10-24T01:37:47;2.57;;;1.30;;
48861;SDS011;34681;49.188;-0.374;2022-10-24T01:39:58;4.00;;;1.50;;
48861;SDS011;34681;49.188;-0.374;2022-10-24T01:42:27;3.20;;;1.40;;
48861;SDS011;34681;49.188;-0.374;2022-10-24T01:44:55;3.53;;;1.53;;
48861;SDS011;34681;49.188;-0.374;2022-10-24T01:47:43;4.07;;;1.80;;
48861;SDS011;34681;49.188;-0.374;2022-10-24T01:50:13;4.00;;;1.57;;
48861;SDS011;34681;49.188;-0.374;2022-10-24T01:52:41;3.60;;;1.60;;
48861;SDS011;34681;49.188;-0.374;2022-10-24T01:55:10;1.87;;;1.40;;
48861;SDS011;34681;49.188;-0.374;2022-10-24T01:57:36;2.80;;;1.57;;
48861;SDS011;34681;49.188;-0.374;2022-10-24T02:00:03;5.67;;;1.60;;
48861;SDS011;34681;49.188;-0.374;2022-10-24T02:02:31;6.00;;;1.80;;
48861;SDS011;34681;49.188;-0.374;2022-10-24T02:05:19;3.23;;;1.40;;
48861;SDS011;34681;49.188;-0.374;2022-10-24T02:08:09;4.07;;;1.80;;
48861;SDS011;34681;49.188;-0.374;2022-10-24T02:10:43;6.93;;;1.80;;
48861;SDS011;34681;49.188;-0.374;2022-10-24T02:13:18;4.37;;;1.90;;
48861;SDS011;34681;49.188;-0.374;2022-10-24T02:16:06;2.97;;;1.50;;
48861;SDS011;34681;49.188;-0.374;2022-10-24T02:18:32;7.83;;;2.47;;
48861;SDS011;34681;49.188;-0.374;2022-10-24T02:23:47;4.97;;;1.93;;
48861;SDS011;34681;49.188;-0.374;2022-10-24T02:29:00;3.80;;;1.57;;
48861;SDS011;34681;49.188;-0.374;2022-10-24T02:31:32;4.30;;;2.37;;
48861;SDS011;34681;49.188;-0.374;2022-10-24T02:34:02;4.13;;;1.83;;
48861;SDS011;34681;49.188;-0.374;2022-10-24T02:36:29;5.50;;;2.20;;
48861;SDS011;34681;49.188;-0.374;2022-10-24T02:38:57;5.90;;;2.30;;
48861;SDS011;34681;49.188;-0.374;2022-10-24T02:41:28;5.57;;;1.83;;
48861;SDS011;34681;49.188;-0.374;2022-10-24T02:43:55;6.60;;;2.60;;
48861;SDS011;34681;49.188;-0.374;2022-10-24T02:46:22;6.67;;;2.80;;
48861;SDS011;34681;49.188;-0.374;2022-10-24T02:48:50;3.40;;;2.00;;
48861;SDS011;34681;49.188;-0.374;2022-10-24T02:51:20;4.87;;;2.10;;
48861;SDS011;34681;49.188;-0.374;2022-10-24T02:53:48;5.73;;;2.40;;
48861;SDS011;34681;49.188;-0.374;2022-10-24T02:56:15;10.90;;;2.80;;
48861;SDS011;34681;49.188;-0.374;2022-10-24T02:58:40;8.37;;;2.80;;
48861;SDS011;34681;49.188;-0.374;2022-10-24T03:01:05;10.40;;;2.63;;
48861;SDS011;34681;49.188;-0.374;2022-10-24T03:03:31;4.77;;;2.57;;
48861;SDS011;34681;49.188;-0.374;2022-10-24T03:05:56;8.70;;;2.70;;
48861;SDS011;34681;49.188;-0.374;2022-10-24T03:08:21;8.87;;;2.53;;
48861;SDS011;34681;49.188;-0.374;2022-10-24T03:10:47;12.03;;;2.70;;
48861;SDS011;34681;49.188;-0.374;2022-10-24T03:13:12;14.13;;;3.30;;
48861;SDS011;34681;49.188;-0.374;2022-10-24T03:15:38;10.67;;;2.93;;
48861;SDS011;34681;49.188;-0.374;2022-10-24T03:18:03;9.83;;;3.10;;
48861;SDS011;34681;49.188;-0.374;2022-10-24T03:20:28;12.93;;;3.53;;
48861;SDS011;34681;49.188;-0.374;2022-10-24T03:22:54;6.47;;;2.97;;
48861;SDS011;34681;49.188;-0.374;2022-10-24T03:25:19;7.67;;;2.70;;
48861;SDS011;34681;49.188;-0.374;2022-10-24T03:27:44;10.53;;;2.53;;
48861;SDS011;34681;49.188;-0.374;2022-10-24T03:30:10;10.93;;;3.83;;
48861;SDS011;34681;49.188;-0.374;2022-10-24T03:32:36;8.40;;;2.77;;
48861;SDS011;34681;49.188;-0.374;2022-10-24T03:35:01;14.20;;;3.93;;
48861;SDS011;34681;49.188;-0.374;2022-10-24T03:37:27;9.37;;;3.00;;
48861;SDS011;34681;49.188;-0.374;2022-10-24T03:39:53;11.30;;;2.63;;
48861;SDS011;34681;49.188;-0.374;2022-10-24T03:42:18;11.90;;;2.93;;
48861;SDS011;34681;49.188;-0.374;2022-10-24T03:44:44;5.63;;;3.03;;
48861;SDS011;34681;49.188;-0.374;2022-10-24T03:47:10;7.10;;;3.10;;
48861;SDS011;34681;49.188;-0.374;2022-10-24T03:49:35;11.13;;;3.00;;
48861;SDS011;34681;49.188;-0.374;2022-10-24T03:52:00;8.93;;;3.13;;
48861;SDS011;34681;49.188;-0.374;2022-10-24T03:54:26;10.80;;;3.53;;
48861;SDS011;34681;49.188;-0.374;2022-10-24T03:56:51;8.43;;;2.60;;
48861;SDS011;34681;49.188;-0.374;2022-10-24T03:59:17;6.93;;;3.30;;
48861;SDS011;34681;49.188;-0.374;2022-10-24T04:01:42;8.60;;;2.57;;
48861;SDS011;34681;49.188;-0.374;2022-10-24T04:04:07;14.43;;;3.23;;
48861;SDS011;34681;49.188;-0.374;2022-10-24T04:06:33;6.70;;;2.67;;
48861;SDS011;34681;49.188;-0.374;2022-10-24T04:08:59;7.10;;;2.57;;
48861;SDS011;34681;49.188;-0.374;2022-10-24T04:11:24;6.80;;;2.17;;
48861;SDS011;34681;49.188;-0.374;2022-10-24T04:13:49;11.10;;;2.40;;
48861;SDS011;34681;49.188;-0.374;2022-10-24T04:16:16;6.63;;;2.80;;
48861;SDS011;34681;49.188;-0.374;2022-10-24T04:18:42;6.80;;;2.73;;
48861;SDS011;34681;49.188;-0.374;2022-10-24T04:21:07;6.23;;;2.60;;
48861;SDS011;34681;49.188;-0.374;2022-10-24T04:23:33;7.53;;;2.83;;
48861;SDS011;34681;49.188;-0.374;2022-10-24T04:26:02;5.87;;;1.90;;
48861;SDS011;34681;49.188;-0.374;2022-10-24T04:28:28;7.80;;;2.40;;
48861;SDS011;34681;49.188;-0.374;2022-10-24T04:30:56;4.63;;;1.93;;
48861;SDS011;34681;49.188;-0.374;2022-10-24T04:33:22;8.50;;;3.20;;
48861;SDS011;34681;49.188;-0.374;2022-10-24T04:35:48;5.10;;;2.13;;
48861;SDS011;34681;49.188;-0.374;2022-10-24T04:38:15;6.57;;;2.50;;
48861;SDS011;34681;49.188;-0.374;2022-10-24T04:40:40;5.17;;;2.23;;
48861;SDS011;34681;49.188;-0.374;2022-10-24T04:43:09;8.03;;;2.40;;
48861;SDS011;34681;49.188;-0.374;2022-10-24T04:45:34;9.10;;;2.80;;
48861;SDS011;34681;49.188;-0.374;2022-10-24T04:48:00;7.10;;;2.27;;
48861;SDS011;34681;49.188;-0.374;2022-10-24T04:50:25;9.53;;;3.40;;
48861;SDS011;34681;49.188;-0.374;2022-10-24T04:52:50;4.27;;;2.20;;
48861;SDS011;34681;49.188;-0.374;2022-10-24T04:55:16;7.80;;;2.40;;
48861;SDS011;34681;49.188;-0.374;2022-10-24T04:57:41;7.93;;;2.30;;
48861;SDS011;34681;49.188;-0.374;2022-10-24T05:00:07;10.70;;;2.87;;
48861;SDS011;34681;49.188;-0.374;2022-10-24T05:02:32;5.77;;;2.17;;
48861;SDS011;34681;49.188;-0.374;2022-10-24T05:04:58;7.53;;;2.77;;
48861;SDS011;34681;49.188;-0.374;2022-10-24T05:07:23;7.57;;;2.07;;
48861;SDS011;34681;49.188;-0.374;2022-10-24T05:09:48;4.77;;;2.50;;
48861;SDS011;34681;49.188;-0.374;2022-10-24T05:12:14;10.13;;;3.20;;
48861;SDS011;34681;49.188;-0.374;2022-10-24T05:14:39;13.80;;;2.97;;
48861;SDS011;34681;49.188;-0.374;2022-10-24T05:17:05;7.17;;;2.80;;
48861;SDS011;34681;49.188;-0.374;2022-10-24T05:19:30;8.23;;;2.70;;
48861;SDS011;34681;49.188;-0.374;2022-10-24T05:21:55;7.60;;;2.70;;
48861;SDS011;34681;49.188;-0.374;2022-10-24T05:24:21;10.93;;;2.90;;
48861;SDS011;34681;49.188;-0.374;2022-10-24T05:26:46;5.43;;;2.40;;
48861;SDS011;34681;49.188;-0.374;2022-10-24T05:29:12;10.50;;;2.83;;
48861;SDS011;34681;49.188;-0.374;2022-10-24T05:31:37;8.40;;;2.80;;
48861;SDS011;34681;49.188;-0.374;2022-10-24T05:34:02;7.33;;;2.80;;
48861;SDS011;34681;49.188;-0.374;2022-10-24T05:36:28;8.23;;;3.03;;
48861;SDS011;34681;49.188;-0.374;2022-10-24T05:38:53;10.80;;;2.90;;
48861;SDS011;34681;49.188;-0.374;2022-10-24T05:41:18;5.50;;;3.27;;
48861;SDS011;34681;49.188;-0.374;2022-10-24T05:43:44;7.93;;;2.60;;
48861;SDS011;34681;49.188;-0.374;2022-10-24T05:46:09;8.80;;;3.87;;
48861;SDS011;34681;49.188;-0.374;2022-10-24T05:48:35;6.57;;;2.80;;
48861;SDS011;34681;49.188;-0.374;2022-10-24T05:51:02;8.60;;;3.10;;
48861;SDS011;34681;49.188;-0.374;2022-10-24T05:53:29;6.10;;;2.47;;
48861;SDS011;34681;49.188;-0.374;2022-10-24T05:55:54;7.00;;;3.10;;
48861;SDS011;34681;49.188;-0.374;2022-10-24T05:58:20;9.80;;;2.70;;
48861;SDS011;34681;49.188;-0.374;2022-10-24T06:00:49;7.00;;;2.73;;
48861;SDS011;34681;49.188;-0.374;2022-10-24T06:03:15;9.43;;;2.47;;
48861;SDS011;34681;49.188;-0.374;2022-10-24T06:05:40;6.80;;;2.90;;
48861;SDS011;34681;49.188;-0.374;2022-10-24T06:08:06;6.03;;;2.63;;
48861;SDS011;34681;49.188;-0.374;2022-10-24T06:10:32;6.70;;;2.73;;
48861;SDS011;34681;49.188;-0.374;2022-10-24T06:12:58;6.83;;;2.60;;
48861;SDS011;34681;49.188;-0.374;2022-10-24T06:15:23;11.00;;;2.67;;
48861;SDS011;34681;49.188;-0.374;2022-10-24T06:17:48;5.73;;;2.47;;
48861;SDS011;34681;49.188;-0.374;2022-10-24T06:20:14;12.53;;;3.20;;
48861;SDS011;34681;49.188;-0.374;2022-10-24T06:22:39;7.97;;;2.77;;
48861;SDS011;34681;49.188;-0.374;2022-10-24T06:25:06;4.03;;;2.20;;
48861;SDS011;34681;49.188;-0.374;2022-10-24T06:27:31;7.10;;;2.67;;
48861;SDS011;34681;49.188;-0.374;2022-10-24T06:29:57;7.20;;;2.00;;
48861;SDS011;34681;49.188;-0.374;2022-10-24T06:32:22;8.90;;;3.17;;
48861;SDS011;34681;49.188;-0.374;2022-10-24T06:34:49;6.07;;;2.20;;
48861;SDS011;34681;49.188;-0.374;2022-10-24T06:37:14;8.63;;;2.83;;
48861;SDS011;34681;49.188;-0.374;2022-10-24T06:39:40;7.70;;;2.60;;
48861;SDS011;34681;49.188;-0.374;2022-10-24T06:42:05;3.30;;;1.90;;
48861;SDS011;34681;49.188;-0.374;2022-10-24T06:44:31;9.97;;;3.03;;
48861;SDS011;34681;49.188;-0.374;2022-10-24T06:46:56;7.60;;;2.23;;
48861;SDS011;34681;49.188;-0.374;2022-10-24T06:49:22;2.90;;;2.30;;
48861;SDS011;34681;49.188;-0.374;2022-10-24T06:52:16;5.80;;;2.23;;
48861;SDS011;34681;49.188;-0.374;2022-10-24T06:54:41;4.03;;;1.93;;
48861;SDS011;34681;49.188;-0.374;2022-10-24T06:57:07;20.63;;;2.50;;
48861;SDS011;34681;49.188;-0.374;2022-10-24T06:59:33;4.13;;;1.87;;
48861;SDS011;34681;49.188;-0.374;2022-10-24T07:01:59;5.97;;;2.20;;
48861;SDS011;34681;49.188;-0.374;2022-10-24T07:04:24;3.50;;;1.43;;
48861;SDS011;34681;49.188;-0.374;2022-10-24T07:06:50;4.03;;;1.63;;
48861;SDS011;34681;49.188;-0.374;2022-10-24T07:09:15;5.93;;;2.13;;
48861;SDS011;34681;49.188;-0.374;2022-10-24T07:11:41;3.40;;;2.00;;
48861;SDS011;34681;49.188;-0.374;2022-10-24T07:14:07;5.30;;;2.33;;
48861;SDS011;34681;49.188;-0.374;2022-10-24T07:16:33;5.90;;;1.87;;
48861;SDS011;34681;49.188;-0.374;2022-10-24T07:18:58;6.10;;;2.43;;
48861;SDS011;34681;49.188;-0.374;2022-10-24T07:21:27;4.90;;;2.60;;
48861;SDS011;34681;49.188;-0.374;2022-10-24T07:23:54;6.60;;;2.07;;
48861;SDS011;34681;49.188;-0.374;2022-10-24T07:26:20;4.93;;;2.03;;
48861;SDS011;34681;49.188;-0.374;2022-10-24T07:28:47;3.90;;;1.87;;
48861;SDS011;34681;49.188;-0.374;2022-10-24T07:31:20;8.40;;;2.00;;
48861;SDS011;34681;49.188;-0.374;2022-10-24T07:33:47;5.43;;;2.37;;
48861;SDS011;34681;49.188;-0.374;2022-10-24T07:36:16;4.03;;;2.47;;
48861;SDS011;34681;49.188;-0.374;2022-10-24T07:38:44;7.70;;;2.10;;
48861;SDS011;34681;49.188;-0.374;2022-10-24T07:41:10;5.07;;;2.40;;
48861;SDS011;34681;49.188;-0.374;2022-10-24T07:43:35;4.03;;;2.07;;
48861;SDS011;34681;49.188;-0.374;2022-10-24T07:46:04;5.60;;;2.03;;
48861;SDS011;34681;49.188;-0.374;2022-10-24T07:48:30;6.80;;;2.20;;
48861;SDS011;34681;49.188;-0.374;2022-10-24T07:50:56;5.40;;;2.67;;
48861;SDS011;34681;49.188;-0.374;2022-10-24T07:53:21;9.40;;;6.50;;
48861;SDS011;34681;49.188;-0.374;2022-10-24T07:55:46;4.00;;;3.37;;
48861;SDS011;34681;49.188;-0.374;2022-10-24T07:58:12;10.87;;;5.90;;
48861;SDS011;34681;49.188;-0.374;2022-10-24T08:00:37;7.13;;;3.40;;
48861;SDS011;34681;49.188;-0.374;2022-10-24T08:03:03;9.20;;;2.20;;
48861;SDS011;34681;49.188;-0.374;2022-10-24T08:05:28;7.13;;;2.50;;
48861;SDS011;34681;49.188;-0.374;2022-10-24T08:07:54;8.07;;;3.03;;
48861;SDS011;34681;49.188;-0.374;2022-10-24T08:10:19;9.97;;;2.87;;
48861;SDS011;34681;49.188;-0.374;2022-10-24T08:12:45;10.27;;;2.77;;
48861;SDS011;34681;49.188;-0.374;2022-10-24T08:15:10;7.73;;;3.00;;
48861;SDS011;34681;49.188;-0.374;2022-10-24T08:17:36;11.13;;;3.40;;
48861;SDS011;34681;49.188;-0.374;2022-10-24T08:20:05;7.80;;;2.60;;
48861;SDS011;34681;49.188;-0.374;2022-10-24T08:22:32;6.60;;;3.00;;
48861;SDS011;34681;49.188;-0.374;2022-10-24T08:24:58;12.33;;;3.07;;
48861;SDS011;34681;49.188;-0.374;2022-10-24T08:27:24;6.47;;;2.57;;
48861;SDS011;34681;49.188;-0.374;2022-10-24T08:29:50;8.97;;;3.57;;
48861;SDS011;34681;49.188;-0.374;2022-10-24T08:32:15;7.07;;;2.70;;
48861;SDS011;34681;49.188;-0.374;2022-10-24T08:34:40;8.33;;;2.80;;
48861;SDS011;34681;49.188;-0.374;2022-10-24T08:37:06;7.43;;;3.40;;
48861;SDS011;34681;49.188;-0.374;2022-10-24T08:39:31;12.97;;;3.63;;
48861;SDS011;34681;49.188;-0.374;2022-10-24T08:41:57;12.03;;;3.20;;
48861;SDS011;34681;49.188;-0.374;2022-10-24T08:44:34;9.53;;;2.97;;
48861;SDS011;34681;49.188;-0.374;2022-10-24T08:47:07;10.23;;;3.53;;
48861;SDS011;34681;49.188;-0.374;2022-10-24T08:49:59;14.90;;;3.70;;
48861;SDS011;34681;49.188;-0.374;2022-10-24T08:55:38;5.97;;;2.90;;
48861;SDS011;34681;49.188;-0.374;2022-10-24T08:58:27;10.17;;;3.33;;
48861;SDS011;34681;49.188;-0.374;2022-10-24T09:00:59;8.20;;;3.10;;
48861;SDS011;34681;49.188;-0.374;2022-10-24T09:03:39;11.17;;;3.70;;
48861;SDS011;34681;49.188;-0.374;2022-10-24T09:06:11;12.27;;;3.23;;
48861;SDS011;34681;49.188;-0.374;2022-10-24T09:16:59;9.30;;;3.80;;
48861;SDS011;34681;49.188;-0.374;2022-10-24T09:19:33;11.50;;;3.20;;
48861;SDS011;34681;49.188;-0.374;2022-10-24T09:21:59;8.53;;;3.17;;
48861;SDS011;34681;49.188;-0.374;2022-10-24T09:24:30;10.67;;;3.80;;
48861;SDS011;34681;49.188;-0.374;2022-10-24T09:27:00;10.17;;;3.03;;
48861;SDS011;34681;49.188;-0.374;2022-10-24T09:29:30;10.33;;;3.20;;
48861;SDS011;34681;49.188;-0.374;2022-10-24T09:31:57;10.40;;;3.80;;
48861;SDS011;34681;49.188;-0.374;2022-10-24T09:34:24;10.40;;;3.73;;
48861;SDS011;34681;49.188;-0.374;2022-10-24T09:36:49;9.17;;;3.20;;
48861;SDS011;34681;49.188;-0.374;2022-10-24T09:39:31;13.87;;;3.37;;
48861;SDS011;34681;49.188;-0.374;2022-10-24T09:41:59;14.47;;;3.70;;
48861;SDS011;34681;49.188;-0.374;2022-10-24T09:44:33;10.17;;;3.27;;
48861;SDS011;34681;49.188;-0.374;2022-10-24T09:47:02;7.97;;;2.90;;
48861;SDS011;34681;49.188;-0.374;2022-10-24T09:49:31;10.73;;;3.83;;
48861;SDS011;34681;49.188;-0.374;2022-10-24T09:54:45;11.77;;;3.63;;
48861;SDS011;34681;49.188;-0.374;2022-10-24T09:57:27;8.60;;;3.10;;
48861;SDS011;34681;49.188;-0.374;2022-10-24T10:00:03;10.67;;;4.07;;
48861;SDS011;34681;49.188;-0.374;2022-10-24T10:02:31;7.70;;;2.87;;
48861;SDS011;34681;49.188;-0.374;2022-10-24T10:07:27;9.83;;;3.40;;
48861;SDS011;34681;49.188;-0.374;2022-10-24T10:09:56;8.27;;;4.20;;
48861;SDS011;34681;49.188;-0.374;2022-10-24T10:12:46;13.03;;;3.37;;
48861;SDS011;34681;49.188;-0.374;2022-10-24T10:15:25;11.33;;;4.10;;
48861;SDS011;34681;49.188;-0.374;2022-10-24T10:18:00;8.57;;;3.03;;
48861;SDS011;34681;49.188;-0.374;2022-10-24T10:20:34;8.63;;;3.13;;
48861;SDS011;34681;49.188;-0.374;2022-10-24T10:23:18;11.60;;;3.10;;
48861;SDS011;34681;49.188;-0.374;2022-10-24T10:31:23;7.87;;;3.40;;
48861;SDS011;34681;49.188;-0.374;2022-10-24T10:34:10;5.23;;;2.27;;
48861;SDS011;34681;49.188;-0.374;2022-10-24T10:36:46;9.37;;;2.80;;
48861;SDS011;34681;49.188;-0.374;2022-10-24T10:42:48;6.83;;;2.97;;
48861;SDS011;34681;49.188;-0.374;2022-10-24T10:50:35;4.97;;;2.20;;
48861;SDS011;34681;49.188;-0.374;2022-10-24T10:53:04;5.20;;;2.10;;
48861;SDS011;34681;49.188;-0.374;2022-10-24T11:14:48;5.60;;;2.00;;
48861;SDS011;34681;49.188;-0.374;2022-10-24T11:17:19;4.30;;;2.13;;
48861;SDS011;34681;49.188;-0.374;2022-10-24T11:22:33;5.47;;;1.90;;
48861;SDS011;34681;49.188;-0.374;2022-10-24T11:25:30;4.67;;;2.73;;
48861;SDS011;34681;49.188;-0.374;2022-10-24T11:28:06;4.40;;;1.93;;
48861;SDS011;34681;49.188;-0.374;2022-10-24T11:33:38;7.30;;;2.70;;
48861;SDS011;34681;49.188;-0.374;2022-10-24T11:36:13;4.80;;;1.90;;
48861;SDS011;34681;49.188;-0.374;2022-10-24T11:38:45;6.13;;;2.03;;
48861;SDS011;34681;49.188;-0.374;2022-10-24T11:41:25;4.03;;;1.67;;
48861;SDS011;34681;49.188;-0.374;2022-10-24T11:43:58;6.30;;;2.57;;
48861;SDS011;34681;49.188;-0.374;2022-10-24T11:46:33;4.67;;;2.17;;
48861;SDS011;34681;49.188;-0.374;2022-10-24T11:49:08;5.30;;;2.17;;
48861;SDS011;34681;49.188;-0.374;2022-10-24T11:51:45;6.00;;;1.87;;
48861;SDS011;34681;49.188;-0.374;2022-10-24T11:54:24;4.43;;;1.80;;
48861;SDS011;34681;49.188;-0.374;2022-10-24T11:57:03;4.90;;;2.33;;
48861;SDS011;34681;49.188;-0.374;2022-10-24T11:59:35;7.93;;;1.90;;
48861;SDS011;34681;49.188;-0.374;2022-10-24T12:02:05;5.53;;;1.90;;
48861;SDS011;34681;49.188;-0.374;2022-10-24T12:08:08;4.03;;;2.00;;
48861;SDS011;34681;49.188;-0.374;2022-10-24T12:16:11;5.63;;;1.70;;
48861;SDS011;34681;49.188;-0.374;2022-10-24T12:18:48;4.60;;;2.10;;
48861;SDS011;34681;49.188;-0.374;2022-10-24T12:21:21;6.50;;;2.20;;
48861;SDS011;34681;49.188;-0.374;2022-10-24T12:23:54;5.50;;;1.83;;
48861;SDS011;34681;49.188;-0.374;2022-10-24T12:26:26;3.10;;;1.67;;
48861;SDS011;34681;49.188;-0.374;2022-10-24T12:28:54;5.13;;;1.90;;
48861;SDS011;34681;49.188;-0.374;2022-10-24T12:31:21;1.97;;;1.70;;
48861;SDS011;34681;49.188;-0.374;2022-10-24T12:39:36;3.50;;;1.57;;
48861;SDS011;34681;49.188;-0.374;2022-10-24T12:42:03;4.70;;;1.53;;
48861;SDS011;34681;49.188;-0.374;2022-10-24T12:46:58;4.17;;;2.33;;
48861;SDS011;34681;49.188;-0.374;2022-10-24T12:49:46;4.83;;;2.20;;
48861;SDS011;34681;49.188;-0.374;2022-10-24T12:54:55;4.40;;;1.70;;
48861;SDS011;34681;49.188;-0.374;2022-10-24T12:57:25;4.10;;;1.80;;
48861;SDS011;34681;49.188;-0.374;2022-10-24T12:59:57;4.87;;;1.83;;
48861;SDS011;34681;49.188;-0.374;2022-10-24T13:02:27;7.93;;;1.97;;
48861;SDS011;34681;49.188;-0.374;2022-10-24T13:13:35;5.37;;;2.33;;
48861;SDS011;34681;49.188;-0.374;2022-10-24T13:19:14;4.50;;;2.30;;
48861;SDS011;34681;49.188;-0.374;2022-10-24T13:21:48;4.53;;;2.10;;
48861;SDS011;34681;49.188;-0.374;2022-10-24T13:31:52;4.40;;;2.17;;
48861;SDS011;34681;49.188;-0.374;2022-10-24T13:42:50;3.93;;;2.10;;
48861;SDS011;34681;49.188;-0.374;2022-10-24T13:45:24;5.43;;;2.30;;
48861;SDS011;34681;49.188;-0.374;2022-10-24T13:47:54;5.70;;;1.90;;
48861;SDS011;34681;49.188;-0.374;2022-10-24T13:50:31;7.23;;;2.10;;
48861;SDS011;34681;49.188;-0.374;2022-10-24T13:53:02;6.00;;;2.57;;
48861;SDS011;34681;49.188;-0.374;2022-10-24T13:55:41;5.20;;;2.73;;
48861;SDS011;34681;49.188;-0.374;2022-10-24T13:58:14;3.80;;;2.10;;
48861;SDS011;34681;49.188;-0.374;2022-10-24T14:00:48;4.87;;;2.07;;
48861;SDS011;34681;49.188;-0.374;2022-10-24T14:03:24;4.33;;;2.27;;
48861;SDS011;34681;49.188;-0.374;2022-10-24T14:05:52;6.07;;;1.70;;
48861;SDS011;34681;49.188;-0.374;2022-10-24T14:08:34;7.23;;;2.80;;
48861;SDS011;34681;49.188;-0.374;2022-10-24T14:11:06;5.33;;;2.10;;
48861;SDS011;34681;49.188;-0.374;2022-10-24T14:13:46;5.27;;;2.30;;
48861;SDS011;34681;49.188;-0.374;2022-10-24T14:16:15;5.50;;;1.80;;
48861;SDS011;34681;49.188;-0.374;2022-10-24T14:18:41;3.67;;;2.37;;
48861;SDS011;34681;49.188;-0.374;2022-10-24T14:21:18;4.93;;;2.03;;
48861;SDS011;34681;49.188;-0.374;2022-10-24T14:23:58;8.37;;;1.90;;
48861;SDS011;34681;49.188;-0.374;2022-10-24T14:26:25;4.67;;;2.60;;
48861;SDS011;34681;49.188;-0.374;2022-10-24T14:28:53;2.83;;;2.10;;
48861;SDS011;34681;49.188;-0.374;2022-10-24T14:34:00;2.60;;;1.40;;
48861;SDS011;34681;49.188;-0.374;2022-10-24T14:36:30;5.63;;;2.40;;
48861;SDS011;34681;49.188;-0.374;2022-10-24T14:38:57;4.20;;;2.20;;
48861;SDS011;34681;49.188;-0.374;2022-10-24T14:41:28;9.33;;;3.47;;
48861;SDS011;34681;49.188;-0.374;2022-10-24T14:44:01;6.30;;;3.03;;
48861;SDS011;34681;49.188;-0.374;2022-10-24T14:46:36;8.70;;;2.30;;
48861;SDS011;34681;49.188;-0.374;2022-10-24T14:49:21;6.50;;;2.10;;
48861;SDS011;34681;49.188;-0.374;2022-10-24T14:51:50;4.87;;;2.70;;
48861;SDS011;34681;49.188;-0.374;2022-10-24T14:54:22;4.97;;;2.40;;
48861;SDS011;34681;49.188;-0.374;2022-10-24T14:56:50;9.63;;;3.37;;
48861;SDS011;34681;49.188;-0.374;2022-10-24T14:59:24;6.23;;;2.47;;
48861;SDS011;34681;49.188;-0.374;2022-10-24T15:01:56;9.93;;;3.57;;
48861;SDS011;34681;49.188;-0.374;2022-10-24T15:04:26;6.57;;;2.33;;
48861;SDS011;34681;49.188;-0.374;2022-10-24T15:07:11;6.67;;;2.20;;
48861;SDS011;34681;49.188;-0.374;2022-10-24T15:09:58;6.20;;;1.67;;
48861;SDS011;34681;49.188;-0.374;2022-10-24T15:14:57;5.43;;;1.73;;
48861;SDS011;34681;49.188;-0.374;2022-10-24T15:19:56;5.30;;;1.87;;
48861;SDS011;34681;49.188;-0.374;2022-10-24T15:24:53;4.63;;;1.70;;
48861;SDS011;34681;49.188;-0.374;2022-10-24T15:27:24;6.73;;;2.30;;
48861;SDS011;34681;49.188;-0.374;2022-10-24T15:29:55;7.03;;;2.60;;
48861;SDS011;34681;49.188;-0.374;2022-10-24T15:32:21;3.33;;;1.70;;
48861;SDS011;34681;49.188;-0.374;2022-10-24T15:34:48;4.20;;;1.90;;
48861;SDS011;34681;49.188;-0.374;2022-10-24T15:37:21;4.93;;;1.73;;
48861;SDS011;34681;49.188;-0.374;2022-10-24T15:39:48;4.37;;;1.93;;
48861;SDS011;34681;49.188;-0.374;2022-10-24T15:42:16;2.83;;;1.60;;
48861;SDS011;34681;49.188;-0.374;2022-10-24T15:44:41;2.83;;;2.07;;
48861;SDS011;34681;49.188;-0.374;2022-10-24T15:47:07;4.30;;;1.90;;
48861;SDS011;34681;49.188;-0.374;2022-10-24T15:49:33;6.40;;;2.40;;
48861;SDS011;34681;49.188;-0.374;2022-10-24T15:51:59;1.53;;;1.30;;
48861;SDS011;34681;49.188;-0.374;2022-10-24T15:54:29;5.90;;;1.47;;
48861;SDS011;34681;49.188;-0.374;2022-10-24T15:56:54;3.80;;;2.10;;
48861;SDS011;34681;49.188;-0.374;2022-10-24T15:59:20;5.03;;;1.83;;
48861;SDS011;34681;49.188;-0.374;2022-10-24T16:01:51;2.63;;;1.80;;
48861;SDS011;34681;49.188;-0.374;2022-10-24T16:04:18;2.73;;;1.67;;
48861;SDS011;34681;49.188;-0.374;2022-10-24T16:06:45;3.33;;;1.73;;
48861;SDS011;34681;49.188;-0.374;2022-10-24T16:09:15;4.67;;;1.93;;
48861;SDS011;34681;49.188;-0.374;2022-10-24T16:11:42;2.70;;;1.80;;
48861;SDS011;34681;49.188;-0.374;2022-10-24T16:14:10;3.73;;;1.97;;
48861;SDS011;34681;49.188;-0.374;2022-10-24T16:16:40;5.00;;;1.60;;
48861;SDS011;34681;49.188;-0.374;2022-10-24T16:19:05;7.43;;;2.47;;
48861;SDS011;34681;49.188;-0.374;2022-10-24T16:21:33;3.23;;;1.87;;
48861;SDS011;34681;49.188;-0.374;2022-10-24T16:23:59;3.53;;;1.60;;
48861;SDS011;34681;49.188;-0.374;2022-10-24T16:26:24;4.60;;;2.07;;
48861;SDS011;34681;49.188;-0.374;2022-10-24T16:28:49;5.50;;;2.40;;
48861;SDS011;34681;49.188;-0.374;2022-10-24T16:31:15;8.93;;;3.30;;
48861;SDS011;34681;49.188;-0.374;2022-10-24T16:33:43;3.87;;;2.13;;
48861;SDS011;34681;49.188;-0.374;2022-10-24T16:36:09;4.63;;;2.43;;
48861;SDS011;34681;49.188;-0.374;2022-10-24T16:38:34;5.60;;;2.50;;
48861;SDS011;34681;49.188;-0.374;2022-10-24T16:41:00;3.83;;;2.30;;
48861;SDS011;34681;49.188;-0.374;2022-10-24T16:43:26;5.83;;;2.20;;
48861;SDS011;34681;49.188;-0.374;2022-10-24T16:45:56;3.30;;;2.23;;
48861;SDS011;34681;49.188;-0.374;2022-10-24T16:48:23;6.60;;;2.83;;
48861;SDS011;34681;49.188;-0.374;2022-10-24T16:50:49;3.63;;;2.10;;
48861;SDS011;34681;49.188;-0.374;2022-10-24T16:53:14;3.80;;;2.13;;
48861;SDS011;34681;49.188;-0.374;2022-10-24T16:55:46;7.47;;;2.10;;
48861;SDS011;34681;49.188;-0.374;2022-10-24T16:58:16;3.07;;;1.70;;
48861;SDS011;34681;49.188;-0.374;2022-10-24T17:00:42;3.33;;;1.53;;
48861;SDS011;34681;49.188;-0.374;2022-10-24T17:03:08;2.27;;;1.67;;
48861;SDS011;34681;49.188;-0.374;2022-10-24T17:05:33;5.30;;;1.80;;
48861;SDS011;34681;49.188;-0.374;2022-10-24T17:07:58;3.07;;;1.83;;
48861;SDS011;34681;49.188;-0.374;2022-10-24T17:10:24;5.53;;;2.00;;